Time;durP1;ratioP1;P1;durP2;ratioP2;P2;SDS_P1;SDS_P2;PMS_P1;PMS_P2;Temp;Humidity;BMP_temperature;BMP_pressure;BME280_temperature;BME280_humidity;BME280_pressure;Samples;Min_cycle;Max_cycle;Signal;HPM_P1;HPM_P2
2022/04/16 00:02:19;;;;;;;14.70;11.07;;;14.40;76.70;;;;;;5088314;28;20886;-70
2022/04/16 00:04:45;;;;;;;15.20;10.07;;;14.40;77.00;;;;;;5088005;28;20417;-71
2022/04/16 00:07:10;;;;;;;12.10;9.50;;;14.40;77.00;;;;;;5054569;28;20517;-69
2022/04/16 00:09:36;;;;;;;13.87;9.90;;;14.40;76.80;;;;;;5087833;28;20512;-70
2022/04/16 00:12:02;;;;;;;15.17;9.37;;;14.40;76.10;;;;;;5090697;28;21045;-68
2022/04/16 00:14:27;;;;;;;13.32;9.40;;;14.30;76.00;;;;;;5070677;28;21096;-70
2022/04/16 00:16:53;;;;;;;12.97;9.50;;;14.30;75.80;;;;;;5071874;28;20406;-70
2022/04/16 00:19:19;;;;;;;11.93;9.40;;;14.40;76.00;;;;;;5086708;28;20420;-70
2022/04/16 00:21:44;;;;;;;12.88;9.77;;;14.30;75.80;;;;;;5089762;28;20405;-71
2022/04/16 00:24:10;;;;;;;13.83;9.87;;;14.30;75.60;;;;;;5069458;28;20401;-69
2022/04/16 00:26:40;;;;;;;13.15;9.98;;;14.40;75.90;;;;;;5090355;28;21153;-68
2022/04/16 00:29:07;;;;;;;12.85;10.02;;;14.30;76.00;;;;;;5052180;28;20412;-69
2022/04/16 00:31:34;;;;;;;12.05;9.57;;;14.30;76.20;;;;;;5089437;28;20891;-71
2022/04/16 00:34:01;;;;;;;13.80;9.90;;;14.30;76.10;;;;;;5088370;28;20759;-70
2022/04/16 00:36:27;;;;;;;13.65;10.13;;;14.40;75.90;;;;;;5089806;28;20405;-72
2022/04/16 00:38:52;;;;;;;14.95;10.50;;;14.30;75.60;;;;;;5083684;28;20406;-71
2022/04/16 00:41:18;;;;;;;16.23;11.05;;;14.30;75.90;;;;;;5070743;28;20476;-69
2022/04/16 00:43:44;;;;;;;15.63;10.77;;;14.30;75.90;;;;;;5067777;28;20503;-71
2022/04/16 00:46:09;;;;;;;14.50;10.98;;;14.20;76.20;;;;;;5071150;28;20936;-70
2022/04/16 00:48:35;;;;;;;13.80;11.27;;;14.20;76.40;;;;;;5088667;28;20425;-70
2022/04/16 00:51:01;;;;;;;14.67;11.40;;;14.10;76.50;;;;;;5087340;28;21139;-71
2022/04/16 00:53:29;;;;;;;15.07;11.90;;;14.10;76.80;;;;;;5086705;28;20736;-71
2022/04/16 00:55:57;;;;;;;16.92;13.00;;;14.10;77.30;;;;;;5088586;28;20759;-71
2022/04/16 00:58:23;;;;;;;15.43;12.88;;;14.10;77.30;;;;;;5086616;28;20471;-68
2022/04/16 01:00:49;;;;;;;16.67;13.73;;;14.10;77.80;;;;;;5085635;28;20437;-69
2022/04/16 01:03:15;;;;;;;17.57;14.17;;;14.00;78.00;;;;;;5043514;28;20426;-70
2022/04/16 01:05:41;;;;;;;17.55;14.32;;;14.00;78.30;;;;;;5069427;28;20497;-71
2022/04/16 01:08:07;;;;;;;16.47;13.73;;;14.00;78.80;;;;;;5088841;28;20822;-72
2022/04/16 01:10:34;;;;;;;19.23;14.35;;;13.90;79.00;;;;;;5088123;28;20409;-72
2022/04/16 01:13:02;;;;;;;15.95;13.38;;;13.90;78.70;;;;;;5069905;28;20820;-71
2022/04/16 01:15:29;;;;;;;16.17;13.32;;;13.90;78.50;;;;;;5086964;28;20497;-70
2022/04/16 01:17:56;;;;;;;16.65;13.43;;;13.90;78.60;;;;;;5089102;28;20460;-69
2022/04/16 01:20:22;;;;;;;18.05;14.18;;;13.80;78.40;;;;;;5068478;28;20414;-71
2022/04/16 01:22:52;;;;;;;17.35;13.05;;;13.80;78.80;;;;;;5089327;28;20393;-70
2022/04/16 01:25:18;;;;;;;14.73;12.67;;;13.80;79.20;;;;;;5086559;28;20482;-67
2022/04/16 01:27:45;;;;;;;16.47;13.20;;;13.80;78.90;;;;;;5084764;28;20853;-67
2022/04/16 01:30:13;;;;;;;16.55;13.00;;;13.80;78.50;;;;;;5085810;28;20414;-68
2022/04/16 01:32:40;;;;;;;17.42;13.00;;;13.80;78.50;;;;;;5086655;28;20397;-69
2022/04/16 01:35:06;;;;;;;15.18;13.10;;;13.70;78.10;;;;;;5077326;28;20496;-69
2022/04/16 01:37:34;;;;;;;15.93;13.05;;;13.60;78.60;;;;;;5085665;28;20770;-70
2022/04/16 01:40:01;;;;;;;16.13;12.60;;;13.60;78.70;;;;;;5083360;28;20941;-71
2022/04/16 01:42:29;;;;;;;15.48;12.73;;;13.60;78.90;;;;;;5067263;28;20512;-68
2022/04/16 01:44:56;;;;;;;14.32;12.43;;;13.50;79.00;;;;;;5079070;28;20466;-69
2022/04/16 01:47:22;;;;;;;17.30;13.15;;;13.50;79.40;;;;;;5078549;28;20902;-69
2022/04/16 01:49:47;;;;;;;16.60;12.82;;;13.50;79.80;;;;;;5066747;28;20547;-70
2022/04/16 01:52:13;;;;;;;17.40;13.07;;;13.50;79.90;;;;;;5086392;28;20410;-70
2022/04/16 01:54:41;;;;;;;16.48;12.48;;;13.50;80.20;;;;;;5051503;28;20971;-70
2022/04/16 01:57:06;;;;;;;16.35;13.45;;;13.50;80.40;;;;;;5069776;28;20398;-70
2022/04/16 01:59:32;;;;;;;15.57;12.70;;;13.50;80.50;;;;;;5084563;28;20486;-73
2022/04/16 02:01:58;;;;;;;15.60;12.60;;;13.40;80.90;;;;;;5067258;28;20868;-70
2022/04/16 02:04:24;;;;;;;18.10;13.17;;;13.40;80.80;;;;;;5086487;28;20936;-72
2022/04/16 02:06:51;;;;;;;16.10;12.73;;;13.50;80.90;;;;;;5087722;28;20916;-70
2022/04/16 02:09:19;;;;;;;19.80;13.43;;;13.40;80.20;;;;;;5067236;28;20442;-71
2022/04/16 02:11:45;;;;;;;17.23;13.57;;;13.40;81.00;;;;;;5052587;28;20461;-72
2022/04/16 02:14:13;;;;;;;19.48;14.32;;;13.30;81.10;;;;;;5066904;28;20397;-68
2022/04/16 02:16:39;;;;;;;17.97;14.00;;;13.30;81.40;;;;;;5089077;28;20406;-72
2022/04/16 02:19:06;;;;;;;20.10;14.60;;;13.30;81.60;;;;;;5087753;28;20409;-71
2022/04/16 02:21:32;;;;;;;20.35;15.40;;;13.30;81.60;;;;;;5084547;28;20921;-71
2022/04/16 02:23:58;;;;;;;20.83;15.53;;;13.20;81.80;;;;;;5069744;28;20398;-72
2022/04/16 02:26:26;;;;;;;20.00;15.60;;;13.10;81.90;;;;;;5068539;28;20420;-69
2022/04/16 02:28:51;;;;;;;20.77;15.77;;;13.00;82.30;;;;;;5084511;28;20551;-69
2022/04/16 02:31:17;;;;;;;21.23;16.15;;;12.90;82.80;;;;;;5087878;28;20556;-70
2022/04/16 02:33:43;;;;;;;21.60;17.13;;;12.90;83.50;;;;;;5084090;28;20406;-72
2022/04/16 02:36:11;;;;;;;22.83;16.90;;;12.90;83.80;;;;;;5086248;28;20555;-73
2022/04/16 02:38:40;;;;;;;23.23;17.50;;;12.80;84.00;;;;;;5086338;28;20464;-71
2022/04/16 02:41:06;;;;;;;21.35;16.83;;;12.70;84.20;;;;;;5085965;28;20421;-69
2022/04/16 02:43:31;;;;;;;20.77;16.47;;;12.70;84.70;;;;;;5069788;28;20401;-69
2022/04/16 02:48:41;;;;;;;23.47;17.47;;;12.60;85.30;;;;;;5085187;28;20424;-72
2022/04/16 02:51:08;;;;;;;23.02;17.50;;;12.60;85.60;;;;;;5067366;28;20398;-71
2022/04/16 02:53:34;;;;;;;22.58;17.70;;;12.60;85.90;;;;;;5086329;28;20421;-69
2022/04/16 02:56:00;;;;;;;23.48;17.75;;;12.50;86.00;;;;;;5085728;28;20413;-69
2022/04/16 02:58:26;;;;;;;22.13;17.75;;;12.50;86.20;;;;;;5086976;28;20408;-73
2022/04/16 03:00:54;;;;;;;23.65;18.52;;;12.50;86.20;;;;;;5085802;28;20445;-71
2022/04/16 03:03:21;;;;;;;23.58;18.67;;;12.50;86.60;;;;;;5085403;28;20487;-72
2022/04/16 03:05:47;;;;;;;25.50;18.67;;;12.40;86.70;;;;;;5067072;28;20417;-72
2022/04/16 03:08:15;;;;;;;24.30;18.95;;;12.40;86.70;;;;;;5083820;28;20416;-71
2022/04/16 03:10:41;;;;;;;21.85;18.30;;;12.40;86.90;;;;;;5084472;28;20748;-71
2022/04/16 03:13:07;;;;;;;23.38;18.73;;;12.40;87.10;;;;;;5086903;28;20458;-68
2022/04/16 03:18:18;;;;;;;25.80;18.40;;;12.30;87.20;;;;;;5084135;28;20913;-71
2022/04/16 03:20:44;;;;;;;25.95;19.08;;;12.30;87.40;;;;;;5085782;28;20406;-73
2022/04/16 03:23:10;;;;;;;24.08;18.58;;;12.30;87.60;;;;;;5069751;28;20421;-69
2022/04/16 03:25:43;;;;;;;26.47;19.33;;;12.20;87.70;;;;;;5084022;28;20406;-70
2022/04/16 03:28:09;;;;;;;22.95;19.02;;;12.20;87.80;;;;;;5084359;28;20410;-69
2022/04/16 03:30:35;;;;;;;23.92;18.98;;;12.20;88.20;;;;;;5069350;28;20409;-70
2022/04/16 03:33:01;;;;;;;22.93;18.57;;;12.10;88.60;;;;;;5083401;28;20755;-70
2022/04/16 03:35:26;;;;;;;23.08;18.88;;;12.10;88.70;;;;;;5085835;28;20418;-70
2022/04/16 03:37:52;;;;;;;25.80;19.37;;;12.10;88.80;;;;;;5085826;28;20425;-72
2022/04/16 03:40:19;;;;;;;26.55;19.73;;;12.10;89.00;;;;;;5085865;28;20412;-72
2022/04/16 03:42:57;;;;;;;25.80;19.48;;;12.00;89.10;;;;;;5084765;28;20429;-70
2022/04/16 03:45:25;;;;;;;23.50;18.92;;;12.00;89.20;;;;;;5085837;28;20445;-69
2022/04/16 03:47:53;;;;;;;25.53;19.37;;;12.00;89.40;;;;;;5085110;28;20425;-69
2022/04/16 03:50:19;;;;;;;26.55;19.67;;;11.90;89.40;;;;;;5066324;28;20917;-70
2022/04/16 03:52:47;;;;;;;25.90;19.15;;;11.90;89.50;;;;;;5085196;28;20882;-70
2022/04/16 04:00:45;;;;;;;27.47;19.40;;;11.80;89.80;;;;;;5042354;28;20417;-70
2022/04/16 04:03:12;;;;;;;24.55;19.27;;;11.80;90.00;;;;;;5079954;28;21066;-71
2022/04/16 04:05:38;;;;;;;26.02;19.05;;;11.80;90.10;;;;;;5068805;28;20492;-70
2022/04/16 04:08:05;;;;;;;26.45;18.88;;;11.80;90.20;;;;;;5082944;28;20413;-70
2022/04/16 04:10:31;;;;;;;25.35;19.60;;;11.80;90.30;;;;;;5085514;28;20579;-71
2022/04/16 04:12:57;;;;;;;25.80;19.42;;;11.70;90.30;;;;;;5066761;28;20501;-70
2022/04/16 04:15:23;;;;;;;25.07;19.10;;;11.80;90.50;;;;;;5049674;28;20443;-69
2022/04/16 04:17:50;;;;;;;25.63;19.23;;;11.80;90.70;;;;;;5085232;28;20492;-73
2022/04/16 04:20:16;;;;;;;26.58;19.45;;;11.70;90.70;;;;;;5086914;28;20413;-72
2022/04/16 04:22:42;;;;;;;25.30;19.50;;;11.70;90.80;;;;;;5088259;28;20413;-70
2022/04/16 04:25:08;;;;;;;26.10;19.27;;;11.70;91.00;;;;;;5089458;28;20410;-71
2022/04/16 04:27:34;;;;;;;25.80;19.20;;;11.70;91.10;;;;;;5085654;28;20430;-69
2022/04/16 04:30:02;;;;;;;29.15;19.73;;;11.70;91.20;;;;;;5087091;28;20418;-69
2022/04/16 04:32:28;;;;;;;26.40;19.77;;;11.70;91.30;;;;;;5086636;28;20433;-67
2022/04/16 04:34:54;;;;;;;26.15;19.23;;;11.70;91.40;;;;;;5089351;28;20421;-67
2022/04/16 04:37:20;;;;;;;28.08;20.80;;;11.70;91.50;;;;;;5087191;28;20406;-69
2022/04/16 04:39:46;;;;;;;25.30;20.30;;;11.60;91.60;;;;;;5086628;28;20502;-69
2022/04/16 04:42:12;;;;;;;29.48;19.77;;;11.60;91.70;;;;;;5086492;28;20436;-69
2022/04/16 04:44:37;;;;;;;26.10;19.70;;;11.60;91.80;;;;;;5067954;28;20394;-68
2022/04/16 04:47:04;;;;;;;26.27;19.90;;;11.60;91.90;;;;;;5068588;28;20468;-70
2022/04/16 04:49:29;;;;;;;27.15;20.20;;;11.60;92.00;;;;;;5088414;28;20836;-69
2022/04/16 04:51:55;;;;;;;25.17;19.80;;;11.60;92.10;;;;;;5086418;28;20522;-68
2022/04/16 04:54:24;;;;;;;26.33;19.55;;;11.60;92.20;;;;;;5068831;28;20455;-68
2022/04/16 04:56:49;;;;;;;30.92;20.40;;;11.60;92.30;;;;;;5087557;28;20405;-70
2022/04/16 04:59:15;;;;;;;25.63;19.63;;;11.60;92.40;;;;;;5084438;28;20887;-68
2022/04/16 05:01:41;;;;;;;26.97;19.93;;;11.60;92.50;;;;;;5087816;28;20416;-70
2022/04/16 05:04:06;;;;;;;28.45;20.85;;;11.50;92.60;;;;;;5084105;28;20402;-71
2022/04/16 05:06:32;;;;;;;28.60;20.80;;;11.50;92.60;;;;;;5064838;28;20406;-71
2022/04/16 05:08:58;;;;;;;24.33;19.77;;;11.60;92.80;;;;;;5086222;28;20402;-69
2022/04/16 05:11:23;;;;;;;28.42;20.85;;;11.60;92.90;;;;;;5065520;28;20406;-73
2022/04/16 05:13:49;;;;;;;27.43;20.57;;;11.50;92.90;;;;;;5081135;28;20907;-69
2022/04/16 05:16:14;;;;;;;28.80;20.20;;;11.50;93.10;;;;;;5060935;28;20839;-70
2022/04/16 05:18:41;;;;;;;27.48;20.67;;;11.50;93.20;;;;;;5086667;28;20414;-70
2022/04/16 05:21:07;;;;;;;29.40;20.52;;;11.50;93.30;;;;;;5087045;28;20890;-70
2022/04/16 05:23:32;;;;;;;26.70;20.07;;;11.50;93.50;;;;;;5087901;28;20410;-71
2022/04/16 05:25:58;;;;;;;26.52;20.30;;;11.50;93.70;;;;;;5085033;28;20484;-71
2022/04/16 05:28:24;;;;;;;30.57;20.53;;;11.60;93.80;;;;;;5067714;28;20418;-70
2022/04/16 05:30:54;;;;;;;26.80;20.67;;;11.60;93.80;;;;;;5069843;28;20398;-71
2022/04/16 05:36:07;;;;;;;33.22;21.17;;;11.60;93.90;;;;;;5068360;28;20404;-71
2022/04/16 05:38:32;;;;;;;30.90;21.63;;;11.60;94.00;;;;;;5064453;28;20498;-70
2022/04/16 05:40:58;;;;;;;32.57;21.50;;;11.60;94.00;;;;;;5061146;28;20417;-73
2022/04/16 05:43:24;;;;;;;30.00;21.58;;;11.70;94.10;;;;;;5068291;28;20409;-72
2022/04/16 05:45:50;;;;;;;31.42;22.80;;;11.70;94.20;;;;;;5087968;28;20736;-70
2022/04/16 05:48:15;;;;;;;30.83;22.37;;;11.70;94.30;;;;;;5063379;28;20808;-74
2022/04/16 05:50:41;;;;;;;30.05;22.13;;;11.70;94.30;;;;;;5087730;28;20418;-72
2022/04/16 05:53:10;;;;;;;30.58;22.70;;;11.70;94.20;;;;;;5084447;28;20451;-71
2022/04/16 05:55:36;;;;;;;33.15;23.00;;;11.70;94.30;;;;;;5068013;28;20414;-74
2022/04/16 05:58:02;;;;;;;33.67;22.90;;;11.80;94.40;;;;;;5084052;28;20424;-72
2022/04/16 06:00:28;;;;;;;31.25;23.23;;;11.80;94.40;;;;;;5066486;28;20413;-72
2022/04/16 06:02:55;;;;;;;33.53;24.92;;;11.80;94.40;;;;;;5085176;28;20422;-73
2022/04/16 06:05:22;;;;;;;34.15;24.33;;;11.80;94.60;;;;;;5084301;28;20406;-72
2022/04/16 06:07:48;;;;;;;34.70;24.27;;;11.80;94.70;;;;;;5082849;28;20492;-71
2022/04/16 06:10:13;;;;;;;36.33;24.77;;;11.90;94.70;;;;;;5083017;28;20412;-72
2022/04/16 06:12:41;;;;;;;31.70;22.63;;;11.90;94.80;;;;;;5082766;28;20417;-73
2022/04/16 06:15:07;;;;;;;31.55;23.13;;;11.90;94.70;;;;;;5061840;28;20474;-71
2022/04/16 06:17:34;;;;;;;31.67;23.42;;;12.00;94.80;;;;;;5065563;28;20821;-73
2022/04/16 06:20:00;;;;;;;32.10;23.98;;;12.00;95.10;;;;;;5068812;28;20429;-70
2022/04/16 06:22:25;;;;;;;33.27;24.37;;;12.00;94.90;;;;;;5050109;28;21593;-71
2022/04/16 06:24:51;;;;;;;34.08;24.90;;;12.10;94.80;;;;;;5065119;28;20805;-73
2022/04/16 06:27:16;;;;;;;32.93;24.63;;;12.10;94.90;;;;;;5083253;28;20515;-72
2022/04/16 06:29:42;;;;;;;33.65;24.98;;;12.10;95.10;;;;;;5084010;28;20525;-70
2022/04/16 06:32:08;;;;;;;34.13;25.40;;;12.10;95.00;;;;;;5084583;28;20474;-71
2022/04/16 06:34:33;;;;;;;36.77;25.40;;;12.20;95.10;;;;;;5053649;28;20448;-72
2022/04/16 06:36:59;;;;;;;36.22;26.27;;;12.20;95.00;;;;;;5085480;28;20811;-72
2022/04/16 06:39:25;;;;;;;37.77;26.33;;;12.30;95.10;;;;;;5084066;28;20426;-71
2022/04/16 06:41:51;;;;;;;34.33;25.60;;;12.30;95.20;;;;;;5047804;28;20416;-73
2022/04/16 06:44:20;;;;;;;33.25;24.50;;;12.30;95.00;;;;;;5067075;28;20398;-72
2022/04/16 06:46:46;;;;;;;34.60;25.93;;;12.40;95.00;;;;;;5080229;28;20406;-71
2022/04/16 06:49:12;;;;;;;33.95;26.08;;;12.50;94.90;;;;;;5068594;28;22005;-72
2022/04/16 06:51:37;;;;;;;38.77;27.90;;;12.50;94.80;;;;;;5077968;28;20431;-71
2022/04/16 06:54:03;;;;;;;44.17;29.58;;;12.50;94.70;;;;;;5084031;28;20441;-72
2022/04/16 06:56:28;;;;;;;37.43;26.50;;;12.60;94.90;;;;;;5083731;28;20409;-72
2022/04/16 06:58:54;;;;;;;34.63;26.07;;;12.60;95.00;;;;;;5085230;28;20420;-71
2022/04/16 07:01:20;;;;;;;37.78;27.75;;;12.70;94.90;;;;;;5085160;28;21094;-70
2022/04/16 07:03:45;;;;;;;38.00;27.00;;;12.70;94.90;;;;;;5085005;28;20409;-75
2022/04/16 07:06:11;;;;;;;36.10;27.20;;;12.80;95.20;;;;;;5077827;28;20417;-74
2022/04/16 07:08:36;;;;;;;39.03;28.52;;;12.80;94.70;;;;;;5085603;28;20507;-72
2022/04/16 07:11:02;;;;;;;39.50;28.47;;;12.90;94.70;;;;;;5065900;28;20454;-73
2022/04/16 07:13:28;;;;;;;35.38;27.30;;;12.90;94.70;;;;;;5079462;28;20902;-73
2022/04/16 07:15:53;;;;;;;36.13;26.42;;;13.00;94.60;;;;;;5083309;28;20413;-71
2022/04/16 07:18:20;;;;;;;37.17;27.77;;;13.10;94.50;;;;;;5063531;28;20411;-72
2022/04/16 07:20:47;;;;;;;34.70;26.27;;;13.20;94.20;;;;;;5080249;28;21107;-72
2022/04/16 07:23:13;;;;;;;36.08;27.17;;;13.20;93.90;;;;;;5083011;28;20405;-71
2022/04/16 07:25:38;;;;;;;37.35;27.73;;;13.30;93.80;;;;;;5079706;28;20406;-71
2022/04/16 07:28:04;;;;;;;36.03;27.17;;;13.30;94.00;;;;;;5061869;28;20410;-71
2022/04/16 07:30:30;;;;;;;38.08;26.90;;;13.50;93.70;;;;;;5059271;28;20482;-71
2022/04/16 07:32:55;;;;;;;34.53;26.60;;;13.60;93.30;;;;;;5064228;28;20435;-73
2022/04/16 07:35:21;;;;;;;34.97;26.63;;;13.70;92.80;;;;;;5064992;28;20447;-73
2022/04/16 07:37:47;;;;;;;49.08;27.80;;;13.90;92.30;;;;;;5067241;28;20410;-76
2022/04/16 07:40:13;;;;;;;33.67;25.70;;;13.90;92.10;;;;;;5066950;28;20417;-75
2022/04/16 07:42:39;;;;;;;34.38;26.67;;;14.00;92.00;;;;;;5068303;28;21270;-70
2022/04/16 07:45:05;;;;;;;35.63;27.25;;;14.00;92.00;;;;;;5082699;28;20410;-74
2022/04/16 07:47:31;;;;;;;37.33;27.30;;;14.10;91.90;;;;;;5066505;28;20402;-72
2022/04/16 07:49:56;;;;;;;34.97;26.77;;;14.20;91.70;;;;;;5061255;28;20412;-74
2022/04/16 07:52:24;;;;;;;34.40;26.30;;;14.30;91.40;;;;;;5068243;28;20405;-71
2022/04/16 07:54:51;;;;;;;34.90;26.35;;;14.40;91.10;;;;;;5085017;28;21080;-73
2022/04/16 07:57:17;;;;;;;33.90;25.97;;;14.50;91.20;;;;;;5069914;28;20497;-72
2022/04/16 07:59:42;;;;;;;33.53;25.92;;;14.60;90.70;;;;;;5070450;28;20958;-72
2022/04/16 08:02:08;;;;;;;34.47;25.90;;;14.70;90.20;;;;;;5086427;28;20957;-71
2022/04/16 08:04:34;;;;;;;32.22;25.38;;;14.80;90.30;;;;;;5088215;28;20448;-75
2022/04/16 08:06:59;;;;;;;31.73;24.17;;;14.80;90.10;;;;;;5085856;28;20493;-75
2022/04/16 08:09:25;;;;;;;31.43;24.43;;;14.80;89.80;;;;;;5070242;28;20994;-72
2022/04/16 08:11:51;;;;;;;32.13;25.00;;;14.90;89.10;;;;;;5088336;28;20429;-71
2022/04/16 08:14:17;;;;;;;29.95;23.00;;;14.90;88.60;;;;;;5070554;28;20410;-74
2022/04/16 08:16:42;;;;;;;30.30;22.92;;;14.90;89.00;;;;;;5065553;28;20770;-72
2022/04/16 08:19:08;;;;;;;30.60;23.40;;;15.00;88.90;;;;;;5086486;28;20540;-71
2022/04/16 08:21:34;;;;;;;31.25;23.88;;;15.00;88.90;;;;;;5085744;28;20420;-72
2022/04/16 08:26:44;;;;;;;28.58;22.20;;;15.40;87.50;;;;;;5088182;28;20416;-74
2022/04/16 08:29:10;;;;;;;25.67;20.92;;;15.90;85.90;;;;;;5086617;28;20417;-72
2022/04/16 08:31:36;;;;;;;25.13;20.33;;;16.60;82.50;;;;;;5082563;28;20398;-71
2022/04/16 08:34:01;;;;;;;24.43;20.00;;;17.80;77.10;;;;;;5089386;28;20409;-71
2022/04/16 08:36:27;;;;;;;24.05;19.30;;;18.70;71.60;;;;;;5088197;28;20426;-71
2022/04/16 08:38:53;;;;;;;;;;;19.50;68.40;;;;;;5087840;28;20413;-72
2022/04/16 08:41:19;;;;;;;;;;;20.60;63.90;;;;;;5088999;28;20379;-71
2022/04/16 08:43:45;;;;;;;;;;;21.90;58.10;;;;;;5088641;28;20045;-72
2022/04/16 08:46:11;;;;;;;;;;;22.90;53.30;;;;;;5087126;28;19908;-73
2022/04/16 08:48:37;;;;;;;;;;;23.60;50.90;;;;;;5067384;28;20406;-72
2022/04/16 08:51:03;;;;;;;;;;;24.40;48.50;;;;;;5088433;28;19995;-70
2022/04/16 08:53:28;;;;;;;;;;;25.30;45.80;;;;;;5088122;28;19908;-71
2022/04/16 08:55:54;;;;;;;;;;;26.20;43.70;;;;;;5069500;28;20240;-71
2022/04/16 08:58:20;;;;;;;;;;;27.30;41.60;;;;;;5090202;28;20260;-71
2022/04/16 09:00:45;;;;;;;;;;;28.40;38.60;;;;;;5071970;28;19919;-72
2022/04/16 09:03:11;;;;;;;;;;;27.30;42.20;;;;;;5070382;28;19998;-72
2022/04/16 09:05:37;;;;;;;;;;;26.80;44.00;;;;;;5070778;28;20361;-72
2022/04/16 09:08:03;;;;;;;;;;;26.50;44.80;;;;;;5071405;28;19938;-70
2022/04/16 09:10:30;;;;;;;;;;;26.70;45.70;;;;;;5086184;28;19923;-71
2022/04/16 09:12:56;;;;;;;;;;;26.60;45.90;;;;;;5073467;28;19962;-71
2022/04/16 09:15:22;;;;;;;;;;;26.50;48.90;;;;;;5087960;28;19908;-73
2022/04/16 09:18:04;;;;;;;;;;;26.40;48.60;;;;;;5088025;28;19947;-71
2022/04/16 09:20:30;;;;;;;;;;;26.40;51.30;;;;;;5087996;28;19916;-75
2022/04/16 09:22:56;;;;;;;;;;;26.50;52.60;;;;;;5072604;28;19912;-74
2022/04/16 09:25:21;;;;;;;;;;;26.70;54.50;;;;;;5089630;28;19998;-71
2022/04/16 09:27:49;;;;;;;;;;;27.00;54.80;;;;;;5090641;28;19922;-74
2022/04/16 09:30:41;;;;;;;;;;;27.40;54.90;;;;;;5069311;28;19915;-70
2022/04/16 09:33:08;;;;;;;;;;;27.70;55.70;;;;;;5068886;28;19995;-72
2022/04/16 09:35:35;;;;;;;;;;;27.60;54.60;;;;;;5083573;28;19939;-70
2022/04/16 09:38:02;;;;;;;16.45;13.45;;;27.50;51.70;;;;;;5085005;28;20202;-71
2022/04/16 09:40:33;;;;;;;15.98;13.20;;;27.30;47.90;;;;;;5050601;28;20225;-70
2022/04/16 09:43:01;;;;;;;14.45;12.57;;;27.40;45.60;;;;;;5087610;28;20190;-72
2022/04/16 09:45:27;;;;;;;;;;;27.30;44.70;;;;;;5085759;28;20050;-74
2022/04/16 09:47:52;;;;;;;;;;;27.00;45.80;;;;;;5072028;28;19955;-71
2022/04/16 09:50:19;;;;;;;;;;;27.20;47.00;;;;;;5053178;28;19939;-70
2022/04/16 09:52:47;;;;;;;;;;;27.70;47.80;;;;;;5068287;28;19908;-73
2022/04/16 09:55:12;;;;;;;;;;;28.40;48.00;;;;;;5086881;28;19912;-72
2022/04/16 09:57:39;;;;;;;;;;;28.90;47.60;;;;;;5087541;28;19915;-71
2022/04/16 10:00:04;;;;;;;;;;;29.40;48.80;;;;;;5081579;28;19920;-71
2022/04/16 10:02:39;;;;;;;;;;;29.80;47.80;;;;;;5087846;28;20368;-74
2022/04/16 10:05:05;;;;;;;;;;;30.10;48.00;;;;;;5053798;28;19919;-72
2022/04/16 10:07:32;;;;;;;;;;;30.20;47.60;;;;;;5066226;28;19957;-72
2022/04/16 10:09:58;;;;;;;;;;;30.20;49.30;;;;;;5083065;28;20010;-73
2022/04/16 10:15:08;;;;;;;;;;;29.90;49.10;;;;;;5086393;28;19916;-72
2022/04/16 10:17:45;;;;;;;10.48;9.02;;;29.70;48.00;;;;;;5070277;28;20525;-71
2022/04/16 10:20:12;;;;;;;;;;;30.00;45.10;;;;;;5083986;28;20032;-71
2022/04/16 10:22:38;;;;;;;;;;;30.20;44.10;;;;;;5066732;28;19908;-72
2022/04/16 10:25:04;;;;;;;;;;;30.40;45.20;;;;;;5064311;28;19961;-73
2022/04/16 10:27:38;;;;;;;;;;;30.70;44.90;;;;;;5052874;28;19919;-71
2022/04/16 10:30:11;;;;;;;;;;;30.70;45.30;;;;;;5085573;28;19960;-70
2022/04/16 10:32:40;;;;;;;;;;;31.00;45.40;;;;;;5066752;28;19908;-71
2022/04/16 10:35:16;;;;;;;;;;;31.40;46.20;;;;;;5085675;28;19912;-69
2022/04/16 10:37:43;;;;;;;;;;;31.50;45.40;;;;;;5082002;28;20258;-71
2022/04/16 10:40:18;;;;;;;;;;;31.00;43.50;;;;;;5063748;28;19918;-71
2022/04/16 10:42:51;;;;;;;;;;;30.40;45.20;;;;;;5064700;28;19935;-72
2022/04/16 10:45:17;;;;;;;;;;;29.80;45.00;;;;;;5082803;28;19915;-72
2022/04/16 10:47:43;;;;;;;;;;;29.10;46.10;;;;;;5060955;28;19919;-71
2022/04/16 10:50:12;;;;;;;;;;;28.80;46.40;;;;;;5068114;28;19912;-70
2022/04/16 10:52:37;;;;;;;;;;;28.60;46.70;;;;;;5083398;28;19966;-72
2022/04/16 10:55:06;;;;;;;;;;;28.60;47.20;;;;;;5085193;28;20309;-70
2022/04/16 10:57:32;;;;;;;;;;;28.90;47.50;;;;;;5082928;28;19916;-71
2022/04/16 11:00:10;;;;;;;;;;;29.00;46.10;;;;;;5082081;28;19958;-71
2022/04/16 11:02:36;;;;;;;;;;;28.80;44.80;;;;;;5085574;28;19908;-71
2022/04/16 11:05:05;;;;;;;;;;;28.50;46.20;;;;;;5066368;28;19995;-70
2022/04/16 11:07:35;;;;;;;;;;;28.40;46.50;;;;;;5084403;28;20364;-71
2022/04/16 11:10:01;;;;;;;;;;;28.40;45.00;;;;;;5077872;28;20427;-71
2022/04/16 11:12:26;;;;;;;;;;;28.50;46.00;;;;;;5051320;28;19920;-72
2022/04/16 11:14:52;;;;;;;;;;;28.70;46.10;;;;;;5079322;28;19912;-72
2022/04/16 11:17:21;;;;;;;;;;;29.10;46.00;;;;;;5067463;28;19915;-72
2022/04/16 11:19:58;;;;;;;;;;;29.50;45.40;;;;;;5083102;28;19990;-71
2022/04/16 11:22:25;;;;;;;;;;;29.80;44.70;;;;;;5082034;28;19985;-72
2022/04/16 11:24:50;;;;;;;;;;;30.00;44.10;;;;;;5051089;28;19912;-72
2022/04/16 11:35:53;;;;;;;;;;;30.80;44.50;;;;;;5091767;28;20323;-69
2022/04/16 11:38:29;;;;;;;;;;;31.10;44.40;;;;;;5073991;28;20369;-71
2022/04/16 11:41:04;;;;;;;;;;;31.10;44.60;;;;;;5087097;28;19908;-69
2022/04/16 11:43:30;;;;;;;;;;;31.10;44.00;;;;;;5085369;28;19939;-73
2022/04/16 11:45:56;;;;;;;;;;;30.90;43.60;;;;;;5090180;28;19916;-73
2022/04/16 11:48:22;;;;;;;;;;;30.50;43.30;;;;;;5073197;28;19950;-71
2022/04/16 11:50:48;;;;;;;;;;;30.00;43.80;;;;;;5071171;28;20349;-72
2022/04/16 11:53:14;;;;;;;8.38;6.53;;;29.60;43.50;;;;;;5073442;28;20230;-71
2022/04/16 11:55:51;;;;;;;7.63;6.22;;;29.30;42.30;;;;;;5070859;28;20432;-70
2022/04/16 11:58:17;;;;;;;7.57;6.28;;;30.10;33.00;;;;;;5084295;28;20509;-69
2022/04/16 12:00:49;;;;;;;7.80;6.60;;;30.10;31.70;;;;;;5070319;28;20802;-70
2022/04/16 12:03:15;;;;;;;8.67;7.30;;;30.00;31.70;;;;;;5071210;28;20437;-69
2022/04/16 12:05:46;;;;;;;8.90;7.38;;;29.80;31.80;;;;;;5087740;28;20445;-73
2022/04/16 12:08:12;;;;;;;9.07;7.73;;;29.50;32.30;;;;;;5089002;28;20408;-71
2022/04/16 12:10:39;;;;;;;;;;;29.30;32.30;;;;;;5088038;28;20832;-72
2022/04/16 12:13:09;;;;;;;;;;;29.10;32.90;;;;;;5071916;28;19912;-69
2022/04/16 12:15:39;;;;;;;;;;;29.00;33.20;;;;;;5085057;28;19920;-70
2022/04/16 12:18:09;;;;;;;;;;;28.90;32.50;;;;;;5069222;28;19912;-71
2022/04/16 12:20:39;;;;;;;;;;;28.70;31.80;;;;;;5086695;28;19912;-74
2022/04/16 12:23:05;;;;;;;;;;;28.60;33.10;;;;;;5074665;28;19923;-69
2022/04/16 12:25:32;;;;;;;;;;;28.60;32.80;;;;;;5085648;28;19916;-71
2022/04/16 12:27:58;;;;;;;;;;;28.40;33.10;;;;;;5092516;28;19922;-71
2022/04/16 12:30:28;;;;;;;;;;;28.30;33.10;;;;;;5089676;28;19924;-69
2022/04/16 12:32:54;;;;;;;;;;;28.30;33.30;;;;;;5073813;28;19908;-71
2022/04/16 12:35:20;;;;;;;;;;;28.20;32.90;;;;;;5070083;28;19913;-70
2022/04/16 12:37:45;;;;;;;;;;;28.20;32.70;;;;;;5088534;28;19919;-71
2022/04/16 12:40:11;;;;;;;;;;;28.30;34.00;;;;;;5089800;28;19931;-70
2022/04/16 12:42:36;;;;;;;;;;;28.50;32.20;;;;;;5088141;28;20414;-68
2022/04/16 12:45:02;;;;;;;;;;;28.90;32.10;;;;;;5072381;28;20583;-66
2022/04/16 12:47:27;;;;;;;;;;;29.20;31.10;;;;;;5088927;28;20256;-68
2022/04/16 12:49:53;;;;;;;;;;;29.50;30.40;;;;;;5090780;28;20002;-71
2022/04/16 12:52:19;;;;;;;;;;;29.90;30.10;;;;;;5084240;28;19912;-71
2022/04/16 12:54:44;;;;;;;;;;;30.20;29.60;;;;;;5088292;28;20050;-71
2022/04/16 12:57:10;;;;;;;;;;;30.20;29.60;;;;;;5072571;28;19915;-69
2022/04/16 12:59:35;;;;;;;;;;;30.10;29.40;;;;;;5091878;28;19915;-70
2022/04/16 13:02:01;;;;;;;;;;;30.10;29.30;;;;;;5072771;28;19912;-73
2022/04/16 13:04:29;;;;;;;;;;;30.00;29.40;;;;;;5072418;28;19915;-70
2022/04/16 13:06:54;;;;;;;;;;;29.90;29.50;;;;;;5072359;28;19920;-71
2022/04/16 13:09:20;;;;;;;;;;;29.80;29.50;;;;;;5090386;28;19961;-70
2022/04/16 13:11:46;;;;;;;;;;;29.60;29.60;;;;;;5089580;28;20274;-69
2022/04/16 13:14:12;;;;;;;;;;;29.60;29.90;;;;;;5087843;28;20003;-71
2022/04/16 13:16:38;;;;;;;;;;;29.50;30.30;;;;;;5069733;28;19949;-72
2022/04/16 13:19:04;;;;;;;;;;;29.40;30.20;;;;;;5071399;28;19986;-72
2022/04/16 13:21:30;;;;;;;;;;;29.30;30.00;;;;;;5090172;28;20316;-73
2022/04/16 13:23:56;;;;;;;;;;;29.10;30.20;;;;;;5089102;28;19919;-74
2022/04/16 13:26:22;;;;;;;;;;;29.00;30.00;;;;;;5088339;28;20361;-71